Midway, Georgia
Current Conditions -  °F | °C
As of 11:58 AM on Saturday 20 Dec 2014 (Local Time) from KLHW Reporting Station
Broken Clouds Broken Clouds  
Wind Chill: 54°   Ceiling: 7000
Heat Index: 54°   Visibility: 10mi
Dew Point: 51°   Wind: 6mph
Humidity: 89%   Direction: 340°NNW
Pressure: 30.18"   Gusts: NA
Location:  31.81°N, 81.43°W
Report Text: KLHW 201658Z AUTO 34005KT 10SM FEW006 BKN070 BKN090 12/10 A3018 RMK AO2 RAB1617E1618DZE1556B1618E1628 SLP223 P0000 T01210104
Loading
Personal Weather Stations






























Interactive Weather Map New forecast layout! Learn more

10-Day Weather Forecast

Advertisements
Track Severe Weather on mobile